Nearby METAR Reports

 

KSJC - San Jose, California, USA
Distance from station: NE 9mi, 14km
Updated: Fri, 03-Jul-2020 11:53pm MDT
Clear
Clear
 Wind from NW
Wind: NW 5 mph , 7 km/h
Temperature: 63°F , 17°C
Dew Point: 52°F , 11°C
Humidity: 68%
Barometer: 30.04 inHg , 1017.3 hPa
Clouds: Clear
Visibility: 10 miles , 16 km
2020/07/04 05:53 KSJC 040553Z 32004KT 10SM CLR 17/11 A3004 RMK AO2 SLP170 T01670106 10250 20167 51005
KNUQ - Moffett Nas/Mtn, California, USA
Distance from station: N 9mi, 14km
Updated: Fri, 03-Jul-2020 7:55am MDT
NOT Current
Clear
Clear
 Wind from calm
Wind: Calm
Temperature: 57°F , 14°C
Dew Point: 50°F , 10°C
Humidity: 77%
Barometer: 30.00 inHg , 1015.9 hPa
Clouds: Clear
Visibility: 10 miles , 16 km
2020/07/03 13:55 KNUQ 031355Z AUTO 00000KT 10SM CLR 14/10 A3000 RMK AO2
 
KPAO - Palo Alto, California, USA
Distance from station: NNW 14mi, 23km
Updated: Fri, 03-Jul-2020 5:00pm MDT
NOT Current
Clear
Clear
 Wind from NNW
Wind: NNW 17 mph , 28 km/h
Temperature: 70°F , 21°C
Dew Point: 55°F , 13°C
Humidity: 60%
Barometer: 30.02 inHg , 1016.6 hPa
Clouds: Clear
Visibility: 10 miles , 16 km
2020/07/03 23:00 KPAO 032300Z 33015KT 10SM SKC 21/13 A3002 RMK LAST
KRHV - San Jose/Reid, California, USA
Distance from station: ENE 12mi, 19km
Updated: Fri, 03-Jul-2020 10:47pm MDT
Clear
Clear
 Wind from WNW
Wind: WNW 8 mph , 13 km/h
Temperature: 64°F , 18°C
Dew Point: 48°F , 9°C
Humidity: 56%
Barometer: 30.03 inHg , 1016.9 hPa
Clouds: Clear
Visibility: 10 miles , 16 km
2020/07/04 04:47 KRHV 040447Z 30007KT 10SM SKC 18/09 A3003 RMK LAST
 
KOAK - Oakland, California, USA
Distance from station: NNW 31mi, 50km
Updated: Fri, 03-Jul-2020 11:53pm MDT
Clear
Clear
 Wind from WNW
Wind: WNW 10 mph , 17 km/h
Temperature: 61°F , 16°C
Dew Point: 52°F , 11°C
Humidity: 72%
Barometer: 30.04 inHg , 1017.3 hPa
Clouds: Clear
Visibility: 10 miles , 16 km
2020/07/04 05:53 KOAK 040553Z 29009KT 10SM CLR 16/11 A3004 RMK AO2 SLP173 T01560106 10194 20156 53007
KSQL - San Carlos Airpo, California, USA
Distance from station: NW 21mi, 34km
Updated: Fri, 03-Jul-2020 11:55pm MDT
Clear
Clear
 Wind from SW
Wind: SW 3 mph , 6 km/h
Temperature: 63°F , 17°C
Dew Point: 48°F , 9°C
Humidity: 59%
Barometer: 30.04 inHg , 1017.3 hPa
Clouds: Clear
Visibility: 10 miles , 16 km
2020/07/04 05:55 KSQL 040555Z AUTO 22003KT 10SM CLR 17/09 A3004 RMK AO2
 
KSFO - San Francisco, California, USA
Distance from station: NW 30mi, 49km
Updated: Fri, 03-Jul-2020 11:56pm MDT
Clear
Clear
 Wind from NW
Wind: NW 10 mph , 17 km/h
Temperature: 55°F , 13°C
Dew Point: 50°F , 10°C
Humidity: 82%
Barometer: 30.04 inHg , 1017.3 hPa
Clouds: Clear
Visibility: 10 miles , 16 km
2020/07/04 05:56 KSFO 040556Z 31009KT 10SM CLR 13/10 A3004 RMK AO2 SLP171 T01330100 10194 20133 51007
KE16 - San Martin, California, USA
Distance from station: ESE 27mi, 43km
Updated: Tue, 09-Jun-2020 2:20pm MDT
NOT Current
Clear
Clear
 Wind from NW
Wind: NW 10 mph , 17 km/h
Temperature: 86°F , 30°C
Dew Point: 36°F , 2°C
Humidity: 17%
Barometer: 30.13 inHg , 1020.3 hPa
Clouds: Clear
Visibility: 10 miles , 16 km
2020/06/09 20:20 KE16 092020Z AUTO 31009KT 290V350 10SM CLR 30/02 A3013 RMK AO2 PWINO PNO
 
KWVI - Watsonville, California, USA
Distance from station: SSE 27mi, 44km
Updated: Fri, 03-Jul-2020 11:53pm MDT
Overcast
Overcast
 Wind from calm
Wind: Calm
Temperature: 55°F , 13°C
Dew Point: 54°F , 12°C
Humidity: 94%
Barometer: 30.06 inHg , 1017.9 hPa
Clouds: Overcast
Visibility: 9 miles , 14 km
Cloud details: Overcast 700 ft
2020/07/04 05:53 KWVI 040553Z AUTO 00000KT 9SM OVC007 13/12 A3006 RMK AO2 SLP177 T01280117 10178 20122 52004
KHAF - Half Moon Bay, California, USA
Distance from station: WNW 31mi, 50km
Updated: Fri, 03-Jul-2020 11:55pm MDT

 Wind from calm
Wind: Calm
Temperature: 48°F , 9°C
Dew Point: 46°F , 8°C
Humidity: 94%
Barometer: 30.07 inHg , 1018.3 hPa
Visibility: 7 miles , 11 km
2020/07/04 05:55 KHAF 040555Z AUTO 00000KT 7SM 09/08 A3007 RMK AO2
 
KHWD - Hayward, California, USA
Distance from station: N 28mi, 44km
Updated: Fri, 03-Jul-2020 11:54pm MDT
Clear
Clear
 Wind from NW
Wind: NW 3 mph , 6 km/h
Temperature: 59°F , 15°C
Dew Point: 52°F , 11°C
Humidity: 77%
Barometer: 30.03 inHg , 1016.9 hPa
Clouds: Clear
Visibility: 10 miles , 16 km
2020/07/04 05:54 KHWD 040554Z AUTO 32003KT 10SM CLR 15/11 A3003 RMK AO2 SLP179 T01500106 10206 20150 51006
KLVK - Livermore, California, USA
Distance from station: NNE 31mi, 51km
Updated: Fri, 03-Jul-2020 11:53pm MDT
Clear
Clear
 Wind from W
Wind: W 7 mph , 11 km/h
Temperature: 63°F , 17°C
Dew Point: 46°F , 8°C
Humidity: 56%
Barometer: 30.01 inHg , 1016.3 hPa
Clouds: Clear
Visibility: 10 miles , 16 km
2020/07/04 05:53 KLVK 040553Z AUTO 27006KT 10SM CLR 17/08 A3001 RMK AO2 SLP159 T01720083 10283 20167 53008